createdAt,value
2017-09-27T00:01:02.343Z,7.30
2017-09-27T00:03:29.916Z,6.80
2017-09-27T00:05:58.240Z,6.73
2017-09-27T00:08:25.849Z,7.37
2017-09-27T00:10:53.412Z,6.73
2017-09-27T00:13:21.775Z,7.30
2017-09-27T00:15:49.328Z,7.07
2017-09-27T00:18:16.913Z,7.20
2017-09-27T00:20:44.469Z,6.50
2017-09-27T00:23:12.057Z,8.33
2017-09-27T00:25:40.432Z,8.10
2017-09-27T00:28:08.760Z,7.00
2017-09-27T00:30:36.337Z,7.80
2017-09-27T00:33:03.903Z,7.27
2017-09-27T00:35:31.494Z,7.20
2017-09-27T00:37:59.053Z,7.93
2017-09-27T00:40:26.658Z,9.53
2017-09-27T00:42:54.230Z,8.63
2017-09-27T00:45:21.788Z,8.40
2017-09-27T00:47:49.400Z,7.80
2017-09-27T00:50:16.964Z,8.60
2017-09-27T00:52:44.563Z,11.47
2017-09-27T00:55:12.899Z,9.73
2017-09-27T00:57:40.507Z,9.63
2017-09-27T01:00:08.833Z,10.97
2017-09-27T01:02:36.407Z,11.83
2017-09-27T01:05:03.993Z,11.10
2017-09-27T01:07:31.583Z,11.97
2017-09-27T01:10:00.098Z,12.87
2017-09-27T01:12:27.678Z,10.80
2017-09-27T01:14:55.276Z,12.13
2017-09-27T01:17:22.864Z,12.30
2017-09-27T01:19:51.204Z,12.30
2017-09-27T01:22:18.799Z,12.73
2017-09-27T01:24:46.387Z,12.83
2017-09-27T01:27:14.769Z,12.30
2017-09-27T01:29:43.113Z,13.13
2017-09-27T01:32:10.737Z,12.60
2017-09-27T01:34:38.321Z,13.17
2017-09-27T01:37:06.081Z,11.73
2017-09-27T01:39:33.683Z,12.70
2017-09-27T01:42:01.273Z,11.83
2017-09-27T01:44:29.662Z,11.33
2017-09-27T01:46:57.247Z,11.37
2017-09-27T01:49:24.837Z,11.67
2017-09-27T01:51:52.438Z,13.70
2017-09-27T01:54:20.768Z,13.57
2017-09-27T01:56:48.363Z,11.53
2017-09-27T01:59:17.434Z,12.20
2017-09-27T02:01:45.031Z,13.50
2017-09-27T02:04:12.611Z,12.13
2017-09-27T02:06:40.977Z,12.67
2017-09-27T02:09:08.550Z,12.30
2017-09-27T02:11:36.905Z,12.90
2017-09-27T02:14:04.505Z,11.70
2017-09-27T02:16:32.846Z,12.17
2017-09-27T02:19:00.425Z,13.53
2017-09-27T02:21:27.998Z,12.67
2017-09-27T02:23:55.625Z,12.07
2017-09-27T02:26:23.221Z,13.80
2017-09-27T02:28:50.782Z,12.90
2017-09-27T02:31:18.361Z,12.17
2017-09-27T02:33:46.718Z,13.00
2017-09-27T02:36:14.315Z,12.57
2017-09-27T02:38:42.655Z,13.50
2017-09-27T02:41:10.509Z,12.63
2017-09-27T02:43:38.087Z,13.57
2017-09-27T02:46:05.666Z,11.80
2017-09-27T02:48:33.282Z,12.57
2017-09-27T02:51:00.876Z,13.40
2017-09-27T02:53:28.494Z,12.63
2017-09-27T02:55:56.832Z,12.57
2017-09-27T02:58:24.435Z,13.43
2017-09-27T03:00:52.779Z,12.00
2017-09-27T03:03:20.337Z,12.80
2017-09-27T03:05:47.950Z,11.00
2017-09-27T03:08:16.308Z,12.10
2017-09-27T03:10:43.908Z,12.40
2017-09-27T03:13:11.497Z,11.80
2017-09-27T03:15:39.099Z,11.90
2017-09-27T03:18:06.678Z,12.87
2017-09-27T03:20:34.256Z,12.37
2017-09-27T03:23:02.605Z,12.20
2017-09-27T03:25:30.178Z,11.73
2017-09-27T03:27:57.785Z,11.77
2017-09-27T03:30:25.345Z,12.27
2017-09-27T03:32:52.969Z,11.60
2017-09-27T03:35:20.523Z,10.80
2017-09-27T03:37:48.099Z,12.43
2017-09-27T03:40:15.694Z,10.33
2017-09-27T03:42:43.271Z,11.10
2017-09-27T03:45:10.867Z,10.60
2017-09-27T03:47:38.439Z,12.30
2017-09-27T03:50:06.036Z,11.27
2017-09-27T03:52:34.375Z,10.60
2017-09-27T03:55:01.951Z,10.67
2017-09-27T03:57:29.532Z,12.17
2017-09-27T03:59:57.106Z,10.70
2017-09-27T04:02:25.453Z,12.80
2017-09-27T04:04:53.028Z,11.10
2017-09-27T04:07:20.667Z,11.53
2017-09-27T04:09:48.233Z,10.73
2017-09-27T04:12:15.792Z,11.87
2017-09-27T04:14:43.405Z,12.73
2017-09-27T04:17:11.733Z,11.07
2017-09-27T04:19:39.330Z,11.27
2017-09-27T04:22:06.983Z,11.30
2017-09-27T04:24:34.576Z,11.57
2017-09-27T04:27:02.151Z,11.50
2017-09-27T04:29:30.510Z,11.20
2017-09-27T04:31:58.115Z,10.07
2017-09-27T04:34:25.690Z,10.23
2017-09-27T04:36:53.287Z,11.33
2017-09-27T04:39:20.863Z,10.17
2017-09-27T04:41:48.546Z,10.90
2017-09-27T04:44:16.982Z,10.23
2017-09-27T04:46:44.550Z,9.73
2017-09-27T04:49:12.166Z,10.20
2017-09-27T04:51:40.511Z,10.43
2017-09-27T04:54:08.125Z,11.50
2017-09-27T04:56:36.471Z,10.20
2017-09-27T04:59:04.074Z,13.00
2017-09-27T05:01:32.488Z,10.37
2017-09-27T05:04:00.062Z,10.07
2017-09-27T05:06:27.636Z,11.40
2017-09-27T05:08:55.207Z,9.70
2017-09-27T05:11:22.788Z,10.90
2017-09-27T05:13:51.229Z,8.50
2017-09-27T05:16:18.830Z,9.60
2017-09-27T05:18:46.388Z,9.80
2017-09-27T05:21:13.981Z,10.67
2017-09-27T05:23:42.346Z,11.40
2017-09-27T05:26:10.694Z,8.93
2017-09-27T05:28:38.297Z,9.07
2017-09-27T05:31:05.872Z,9.67
2017-09-27T05:33:37.331Z,8.90
2017-09-27T05:36:05.685Z,9.77
2017-09-27T05:38:33.244Z,10.10
2017-09-27T05:41:00.834Z,10.80
2017-09-27T05:43:29.182Z,9.03
2017-09-27T05:45:56.767Z,9.60
2017-09-27T05:48:24.357Z,10.10
2017-09-27T05:50:51.958Z,10.00
2017-09-27T05:53:19.530Z,10.80
2017-09-27T05:55:47.160Z,10.33
2017-09-27T05:58:14.885Z,11.40
2017-09-27T06:00:42.446Z,9.83
2017-09-27T06:03:10.062Z,10.53
2017-09-27T06:05:37.638Z,9.43
2017-09-27T06:08:05.221Z,10.90
2017-09-27T06:10:32.799Z,10.63
2017-09-27T06:13:00.352Z,11.37
2017-09-27T06:15:27.928Z,12.40
2017-09-27T06:17:55.524Z,11.03
2017-09-27T06:20:23.892Z,10.53
2017-09-27T06:22:51.449Z,11.87
2017-09-27T06:25:19.054Z,11.53
2017-09-27T06:27:46.633Z,11.20
2017-09-27T06:30:14.194Z,13.10
2017-09-27T06:32:41.785Z,11.50
2017-09-27T06:35:09.345Z,12.27
2017-09-27T06:37:36.994Z,11.47
2017-09-27T06:40:04.563Z,12.00
2017-09-27T06:42:32.320Z,13.73
2017-09-27T06:44:59.923Z,12.67
2017-09-27T06:47:27.550Z,12.93
2017-09-27T06:49:55.140Z,11.97
2017-09-27T06:52:22.729Z,14.77
2017-09-27T06:54:50.345Z,12.27
2017-09-27T06:57:17.923Z,13.03
2017-09-27T06:59:45.541Z,12.30
2017-09-27T07:02:13.868Z,12.40
2017-09-27T07:04:41.488Z,12.87
2017-09-27T07:07:09.827Z,12.00
2017-09-27T07:09:37.403Z,11.97
2017-09-27T07:12:04.985Z,13.27
2017-09-27T07:14:33.322Z,14.00
2017-09-27T07:17:00.927Z,13.37
2017-09-27T07:19:28.499Z,13.30
2017-09-27T07:21:56.857Z,12.77
2017-09-27T07:24:24.439Z,12.73
2017-09-27T07:26:52.798Z,12.10
2017-09-27T07:29:20.406Z,12.50
2017-09-27T07:31:48.757Z,11.93
2017-09-27T07:34:16.371Z,12.07
2017-09-27T07:36:43.931Z,12.87
2017-09-27T07:39:11.540Z,12.70
2017-09-27T07:41:39.115Z,13.07
2017-09-27T07:44:06.705Z,12.80
2017-09-27T07:46:35.068Z,12.97
2017-09-27T07:49:03.411Z,12.93
2017-09-27T07:51:31.011Z,13.77
2017-09-27T07:53:58.590Z,11.70
2017-09-27T07:56:26.974Z,13.13
2017-09-27T07:58:55.309Z,12.60
2017-09-27T08:01:22.878Z,11.20
2017-09-27T08:03:50.483Z,12.63
2017-09-27T08:06:18.806Z,12.47
2017-09-27T08:08:46.389Z,12.83
2017-09-27T08:11:13.962Z,12.90
2017-09-27T08:13:41.580Z,13.03
2017-09-27T08:16:09.159Z,12.20
2017-09-27T08:18:36.825Z,14.67
2017-09-27T08:21:04.437Z,11.50
2017-09-27T08:23:32.013Z,11.93
2017-09-27T08:26:00.375Z,13.03
2017-09-27T08:28:27.955Z,11.87
2017-09-27T08:30:56.333Z,12.30
2017-09-27T08:33:23.907Z,12.53
2017-09-27T08:35:52.257Z,12.80
2017-09-27T08:38:19.813Z,12.37
2017-09-27T08:40:47.401Z,12.57
2017-09-27T08:43:14.975Z,12.60
2017-09-27T08:45:43.310Z,11.60
2017-09-27T08:48:10.888Z,11.63
2017-09-27T08:50:38.447Z,12.60
2017-09-27T08:53:06.049Z,11.77
2017-09-27T08:55:34.387Z,11.57
2017-09-27T08:58:01.988Z,11.90
2017-09-27T09:00:30.333Z,11.70
2017-09-27T09:02:57.985Z,11.73
2017-09-27T09:05:25.541Z,11.80
2017-09-27T09:07:53.097Z,11.47
2017-09-27T09:10:20.709Z,12.30
2017-09-27T09:12:48.650Z,13.77
2017-09-27T09:15:16.520Z,12.60
2017-09-27T09:17:44.110Z,11.83
2017-09-27T09:20:11.701Z,10.57
2017-09-27T09:22:40.073Z,10.93
2017-09-27T09:25:07.661Z,11.47
2017-09-27T09:27:36.080Z,11.20
2017-09-27T09:30:03.653Z,11.93
2017-09-27T09:32:31.254Z,12.50
2017-09-27T09:34:58.815Z,12.07
2017-09-27T09:37:26.391Z,12.60
2017-09-27T09:39:54.738Z,11.30
2017-09-27T09:42:22.314Z,11.53
2017-09-27T09:44:50.671Z,11.70
2017-09-27T09:47:18.224Z,12.83
2017-09-27T09:49:45.823Z,11.77
2017-09-27T09:52:13.394Z,12.23
2017-09-27T09:54:40.978Z,12.00
2017-09-27T09:57:09.355Z,11.40
2017-09-27T09:59:36.957Z,11.40
2017-09-27T10:02:04.552Z,10.73
2017-09-27T10:04:32.132Z,11.00
2017-09-27T10:06:59.750Z,12.10
2017-09-27T10:09:27.309Z,10.60
2017-09-27T10:11:54.914Z,10.10
2017-09-27T10:14:22.528Z,10.97
2017-09-27T10:16:50.121Z,10.00
2017-09-27T10:19:17.715Z,9.10
2017-09-27T10:21:45.346Z,10.70
2017-09-27T10:24:12.961Z,10.10
2017-09-27T10:26:41.303Z,10.67
2017-09-27T10:29:08.911Z,7.30
2017-09-27T10:31:37.247Z,10.30
2017-09-27T10:34:04.838Z,9.50
2017-09-27T10:36:32.438Z,12.57
2017-09-27T10:39:00.775Z,7.67
2017-09-27T10:41:28.395Z,9.70
2017-09-27T10:43:55.952Z,8.50
2017-09-27T10:46:23.577Z,9.57
2017-09-27T10:48:52.745Z,11.93
2017-09-27T10:51:20.305Z,12.37
2017-09-27T10:53:47.898Z,8.03
2017-09-27T10:56:15.456Z,9.70
2017-09-27T10:58:43.060Z,13.50
2017-09-27T11:01:11.457Z,9.00
2017-09-27T11:03:39.086Z,11.77
2017-09-27T11:06:06.645Z,9.33
2017-09-27T11:08:34.224Z,13.37
2017-09-27T11:11:02.587Z,9.70
2017-09-27T11:13:30.166Z,11.40
2017-09-27T11:15:57.763Z,12.70
2017-09-27T11:18:25.354Z,10.70
2017-09-27T11:20:52.954Z,10.57
2017-09-27T11:23:20.581Z,12.30
2017-09-27T11:25:48.187Z,9.87
2017-09-27T11:28:15.781Z,12.60
2017-09-27T11:30:43.367Z,12.37
2017-09-27T11:33:10.978Z,12.23
2017-09-27T11:35:38.573Z,11.47
2017-09-27T11:38:06.167Z,8.87
2017-09-27T11:40:33.753Z,9.20
2017-09-27T11:43:01.365Z,9.47
2017-09-27T11:45:28.972Z,11.93
2017-09-27T11:47:56.585Z,8.67
2017-09-27T11:50:25.019Z,8.80
2017-09-27T11:52:52.592Z,10.37
2017-09-27T11:55:20.194Z,10.70
2017-09-27T11:57:48.549Z,11.53
2017-09-27T12:00:16.159Z,11.80
2017-09-27T12:02:43.769Z,11.87
2017-09-27T12:05:11.348Z,12.20
2017-09-27T12:07:38.957Z,11.87
2017-09-27T12:10:06.527Z,9.03
2017-09-27T12:12:34.146Z,8.87
2017-09-27T12:15:01.701Z,9.60
2017-09-27T12:17:29.295Z,8.30
2017-09-27T12:19:57.649Z,9.00
2017-09-27T12:22:25.260Z,9.57
2017-09-27T12:24:52.831Z,9.30
2017-09-27T12:27:20.427Z,9.50
2017-09-27T12:29:48.037Z,10.40
2017-09-27T12:32:15.619Z,9.53
2017-09-27T12:34:43.205Z,9.70
2017-09-27T12:37:10.778Z,9.87
2017-09-27T12:39:38.393Z,9.70
2017-09-27T12:42:06.735Z,10.40
2017-09-27T12:44:34.333Z,10.20
2017-09-27T12:47:02.758Z,10.30
2017-09-27T12:49:30.347Z,9.00
2017-09-27T12:51:57.961Z,8.47
2017-09-27T12:54:25.535Z,8.70
2017-09-27T12:56:53.142Z,7.73
2017-09-27T12:59:20.723Z,8.23
2017-09-27T13:01:48.281Z,9.03
2017-09-27T13:04:15.911Z,10.40
2017-09-27T13:06:43.498Z,7.07
2017-09-27T13:09:11.095Z,9.10
2017-09-27T13:11:39.457Z,9.80
2017-09-27T13:14:07.082Z,8.30
2017-09-27T13:16:34.676Z,9.27
2017-09-27T13:19:02.255Z,9.00
2017-09-27T13:21:29.984Z,9.50
2017-09-27T13:23:57.545Z,8.43
2017-09-27T13:26:25.155Z,9.40
2017-09-27T13:28:52.726Z,9.80
2017-09-27T13:31:20.330Z,9.10
2017-09-27T13:33:47.892Z,10.70
2017-09-27T13:36:15.463Z,9.20
2017-09-27T13:38:43.068Z,9.27
2017-09-27T13:41:10.644Z,9.13
2017-09-27T13:43:38.997Z,9.73
2017-09-27T13:46:06.581Z,8.57
2017-09-27T13:48:34.191Z,8.97
2017-09-27T13:51:01.788Z,8.20
2017-09-27T13:53:29.396Z,10.30
2017-09-27T13:55:57.737Z,9.30
2017-09-27T13:58:25.330Z,9.07
2017-09-27T14:00:52.945Z,9.77
2017-09-27T14:03:20.533Z,8.50
2017-09-27T14:05:48.107Z,9.07
2017-09-27T14:08:15.703Z,10.63
2017-09-27T14:10:44.071Z,7.90
2017-09-27T14:13:11.670Z,8.10
2017-09-27T14:15:39.293Z,8.40
2017-09-27T14:18:06.891Z,9.03
2017-09-27T14:20:34.483Z,9.20
2017-09-27T14:23:02.106Z,8.27
2017-09-27T14:25:30.446Z,9.20
2017-09-27T14:27:58.019Z,8.80
2017-09-27T14:30:25.623Z,8.87
2017-09-27T14:32:53.992Z,9.37
2017-09-27T14:35:22.395Z,9.97
2017-09-27T14:37:49.981Z,9.77
2017-09-27T14:40:17.601Z,8.30
2017-09-27T14:42:45.943Z,9.83
2017-09-27T14:45:13.598Z,9.17
2017-09-27T14:47:41.209Z,9.77
2017-09-27T14:50:09.541Z,8.50
2017-09-27T14:52:37.143Z,10.40
2017-09-27T14:55:04.701Z,10.40
2017-09-27T14:57:32.274Z,9.50
2017-09-27T14:59:59.875Z,10.90
2017-09-27T15:02:27.458Z,9.43
2017-09-27T15:04:55.075Z,9.87
2017-09-27T15:07:22.637Z,9.80
2017-09-27T15:09:51.719Z,9.17
2017-09-27T15:12:19.302Z,9.03
2017-09-27T15:14:46.879Z,8.90
2017-09-27T15:17:15.241Z,8.07
2017-09-27T15:19:42.829Z,9.10
2017-09-27T15:22:11.209Z,8.70
2017-09-27T15:24:39.565Z,9.13
2017-09-27T15:27:07.179Z,7.50
2017-09-27T15:29:34.759Z,8.53
2017-09-27T15:32:02.335Z,9.87
2017-09-27T15:34:29.943Z,9.20
2017-09-27T15:36:58.287Z,9.80
2017-09-27T15:39:25.930Z,10.63
2017-09-27T15:41:53.517Z,9.80
2017-09-27T15:44:21.091Z,7.87
2017-09-27T15:46:48.690Z,8.43
2017-09-27T15:49:17.034Z,9.87
2017-09-27T15:51:44.617Z,9.70
2017-09-27T15:54:12.199Z,9.67
2017-09-27T15:56:40.567Z,8.87
2017-09-27T15:59:08.143Z,9.30
2017-09-27T16:01:36.529Z,10.67
2017-09-27T16:04:04.898Z,11.57
2017-09-27T16:06:33.272Z,10.47
2017-09-27T16:09:00.870Z,10.90
2017-09-27T16:11:28.456Z,11.53
2017-09-27T16:13:56.083Z,9.70
2017-09-27T16:16:24.438Z,9.73
2017-09-27T16:18:52.044Z,9.47
2017-09-27T16:21:19.600Z,8.60
2017-09-27T16:23:47.940Z,8.90
2017-09-27T16:26:15.520Z,8.90
2017-09-27T16:28:43.092Z,9.00
2017-09-27T16:31:10.699Z,10.20
2017-09-27T16:33:38.276Z,8.93
2017-09-27T16:36:05.841Z,9.30
2017-09-27T16:38:33.440Z,10.03
2017-09-27T16:41:01.016Z,11.03
2017-09-27T16:43:29.389Z,10.27
2017-09-27T16:45:56.963Z,11.90
2017-09-27T16:48:25.321Z,10.77
2017-09-27T16:50:52.876Z,10.50
2017-09-27T16:53:20.474Z,10.20
2017-09-27T16:55:48.826Z,9.47
2017-09-27T16:58:16.444Z,9.93
2017-09-27T17:00:44.009Z,9.70
2017-09-27T17:03:11.627Z,10.67
2017-09-27T17:05:39.196Z,11.40
2017-09-27T17:08:06.785Z,10.07
2017-09-27T17:10:35.147Z,9.80
2017-09-27T17:13:02.737Z,10.43
2017-09-27T17:15:30.355Z,10.47
2017-09-27T17:17:57.931Z,10.77
2017-09-27T17:20:25.507Z,10.50
2017-09-27T17:22:53.122Z,11.43
2017-09-27T17:25:20.699Z,10.03
2017-09-27T17:27:48.325Z,10.80
2017-09-27T17:30:16.682Z,11.30
2017-09-27T17:32:44.259Z,11.33
2017-09-27T17:35:12.624Z,10.53
2017-09-27T17:37:40.189Z,11.23
2017-09-27T17:40:07.821Z,10.20
2017-09-27T17:42:35.434Z,10.00
2017-09-27T17:45:03.778Z,10.10
2017-09-27T17:47:31.361Z,10.80
2017-09-27T17:49:58.953Z,10.70
2017-09-27T17:52:27.339Z,11.00
2017-09-27T17:54:55.706Z,11.50
2017-09-27T17:57:24.088Z,11.27
2017-09-27T17:59:52.421Z,11.80
2017-09-27T18:02:20.026Z,11.40
2017-09-27T18:04:52.547Z,11.63
2017-09-27T18:07:25.887Z,11.87
2017-09-27T18:13:17.175Z,12.63
2017-09-27T18:15:48.540Z,11.10
2017-09-27T18:18:19.155Z,11.80
2017-09-27T18:20:46.736Z,13.30
2017-09-27T18:23:14.321Z,12.17
2017-09-27T18:25:42.671Z,12.60
2017-09-27T18:28:10.300Z,12.30
2017-09-27T18:30:37.987Z,12.50
2017-09-27T18:33:05.577Z,12.20
2017-09-27T18:35:33.188Z,11.60
2017-09-27T18:38:00.777Z,11.57
2017-09-27T18:40:28.397Z,11.10
2017-09-27T18:42:56.720Z,11.73
2017-09-27T18:45:24.388Z,10.57
2017-09-27T18:47:52.010Z,11.27
2017-09-27T18:50:20.369Z,12.30
2017-09-27T18:52:47.989Z,10.93
2017-09-27T18:55:15.571Z,13.20
2017-09-27T18:57:43.162Z,12.80
2017-09-27T19:00:12.579Z,13.43
2017-09-27T19:02:40.176Z,12.70
2017-09-27T19:05:07.817Z,12.27
2017-09-27T19:07:36.967Z,12.87
2017-09-27T19:10:04.544Z,14.83
2017-09-27T19:12:32.168Z,13.97
2017-09-27T19:14:59.759Z,13.80
2017-09-27T19:17:27.377Z,14.50
2017-09-27T19:19:55.705Z,12.60
2017-09-27T19:22:23.378Z,13.50
2017-09-27T19:24:50.991Z,14.00
2017-09-27T19:27:19.346Z,12.37
2017-09-27T19:29:46.934Z,13.83
2017-09-27T19:32:14.655Z,13.37
2017-09-27T19:34:42.233Z,13.70
2017-09-27T19:37:09.845Z,14.77
2017-09-27T19:39:38.184Z,13.17
2017-09-27T19:42:05.784Z,13.40
2017-09-27T19:44:34.125Z,13.73
2017-09-27T19:47:01.716Z,13.87
2017-09-27T19:49:29.273Z,12.90
2017-09-27T19:51:56.840Z,13.10
2017-09-27T19:54:24.435Z,14.30
2017-09-27T19:56:52.787Z,13.70
2017-09-27T19:59:20.403Z,15.10
2017-09-27T20:01:47.973Z,14.83
2017-09-27T20:04:15.580Z,15.00
2017-09-27T20:06:43.186Z,14.77
2017-09-27T20:09:10.779Z,13.37
2017-09-27T20:11:38.359Z,13.63
2017-09-27T20:14:05.948Z,14.00
2017-09-27T20:16:34.324Z,12.70
2017-09-27T20:19:01.921Z,13.27
2017-09-27T20:21:29.615Z,14.40
2017-09-27T20:23:57.191Z,13.90
2017-09-27T20:26:24.781Z,13.03
2017-09-27T20:28:52.383Z,14.93
2017-09-27T20:31:19.973Z,13.80
2017-09-27T20:33:47.599Z,13.53
2017-09-27T20:36:15.943Z,13.97
2017-09-27T20:38:43.506Z,13.20
2017-09-27T20:41:11.154Z,13.80
2017-09-27T20:43:38.749Z,13.20
2017-09-27T20:46:07.115Z,15.00
2017-09-27T20:48:34.699Z,13.97
2017-09-27T20:51:02.341Z,12.90
2017-09-27T20:53:29.953Z,14.43
2017-09-27T20:55:58.315Z,14.80
2017-09-27T20:58:26.952Z,12.73
2017-09-27T21:00:54.573Z,13.37
2017-09-27T21:03:22.977Z,14.93
2017-09-27T21:05:50.564Z,13.80
2017-09-27T21:08:18.169Z,14.73
2017-09-27T21:10:45.728Z,14.23
2017-09-27T21:13:13.289Z,13.63
2017-09-27T21:15:40.909Z,13.20
2017-09-27T21:18:08.496Z,14.30
2017-09-27T21:20:36.099Z,12.50
2017-09-27T21:23:03.693Z,13.03
2017-09-27T21:25:31.311Z,13.43
2017-09-27T21:27:59.655Z,15.37
2017-09-27T21:30:27.213Z,13.77
2017-09-27T21:32:54.882Z,13.67
2017-09-27T21:35:22.458Z,13.93
2017-09-27T21:37:50.034Z,13.87
2017-09-27T21:40:17.630Z,12.50
2017-09-27T21:42:45.212Z,13.70
2017-09-27T21:45:13.572Z,15.77
2017-09-27T21:47:42.710Z,13.40
2017-09-27T21:50:10.297Z,14.00
2017-09-27T21:52:37.904Z,13.47
2017-09-27T21:55:05.506Z,14.30
2017-09-27T21:57:33.151Z,13.20
2017-09-27T22:00:01.477Z,13.00
2017-09-27T22:02:29.065Z,14.20
2017-09-27T22:04:56.663Z,13.83
2017-09-27T22:07:25.009Z,14.30
2017-09-27T22:09:52.689Z,13.73
2017-09-27T22:12:20.301Z,14.23
2017-09-27T22:14:47.875Z,14.23
2017-09-27T22:17:15.478Z,14.27
2017-09-27T22:19:43.820Z,13.23
2017-09-27T22:22:11.457Z,13.77
2017-09-27T22:24:39.040Z,13.07
2017-09-27T22:27:06.615Z,13.80
2017-09-27T22:29:34.229Z,13.53
2017-09-27T22:32:01.955Z,13.77
2017-09-27T22:34:29.562Z,12.20
2017-09-27T22:36:57.937Z,13.87
2017-09-27T22:39:25.496Z,13.63
2017-09-27T22:41:54.607Z,12.97
2017-09-27T22:44:22.954Z,13.30
2017-09-27T22:46:50.575Z,13.33
2017-09-27T22:49:18.907Z,13.57
2017-09-27T22:51:46.482Z,12.53
2017-09-27T22:54:14.795Z,12.77
2017-09-27T22:56:45.468Z,12.90
2017-09-27T22:59:13.111Z,13.20
2017-09-27T23:01:40.687Z,13.80
2017-09-27T23:04:08.261Z,14.20
2017-09-27T23:06:35.870Z,12.20
2017-09-27T23:09:04.229Z,12.93
2017-09-27T23:11:31.835Z,12.93
2017-09-27T23:14:00.231Z,13.47
2017-09-27T23:16:27.793Z,14.00
2017-09-27T23:18:55.393Z,12.57
2017-09-27T23:21:22.970Z,12.37
2017-09-27T23:23:50.570Z,12.90
2017-09-27T23:26:18.900Z,14.17
2017-09-27T23:28:46.495Z,12.87
2017-09-27T23:31:14.942Z,11.93
2017-09-27T23:33:42.569Z,13.97
2017-09-27T23:36:10.901Z,12.43
2017-09-27T23:38:38.479Z,13.20
2017-09-27T23:41:06.079Z,13.53
2017-09-27T23:43:34.423Z,12.27
2017-09-27T23:46:02.024Z,13.37
2017-09-27T23:48:30.363Z,12.60
2017-09-27T23:50:57.939Z,13.03
2017-09-27T23:53:25.535Z,12.93
2017-09-27T23:55:53.875Z,14.00
2017-09-27T23:58:21.475Z,13.97
